sensor_id;sensor_type;location;lat;lon;timestamp;temperature;humidity
47336;DHT22;33068;51.990;5.926;2022-12-26T00:01:09;9.10;99.90
47336;DHT22;33068;51.990;5.926;2022-12-26T00:03:39;9.10;99.90
47336;DHT22;33068;51.990;5.926;2022-12-26T00:12:16;9.10;99.90
47336;DHT22;33068;51.990;5.926;2022-12-26T00:14:49;9.20;99.90
47336;DHT22;33068;51.990;5.926;2022-12-26T00:17:20;9.10;99.90
47336;DHT22;33068;51.990;5.926;2022-12-26T00:19:50;9.10;99.90
47336;DHT22;33068;51.990;5.926;2022-12-26T00:22:33;9.10;99.90
47336;DHT22;33068;51.990;5.926;2022-12-26T00:25:00;9.10;99.90
47336;DHT22;33068;51.990;5.926;2022-12-26T00:27:36;9.10;99.90
47336;DHT22;33068;51.990;5.926;2022-12-26T00:30:10;9.10;99.90
47336;DHT22;33068;51.990;5.926;2022-12-26T00:32:48;8.90;99.90
47336;DHT22;33068;51.990;5.926;2022-12-26T00:35:19;9.10;99.90
47336;DHT22;33068;51.990;5.926;2022-12-26T00:37:52;9.10;99.90
47336;DHT22;33068;51.990;5.926;2022-12-26T00:40:24;9.10;99.90
47336;DHT22;33068;51.990;5.926;2022-12-26T00:42:51;9.10;99.90
47336;DHT22;33068;51.990;5.926;2022-12-26T00:45:19;9.20;99.90
47336;DHT22;33068;51.990;5.926;2022-12-26T00:47:50;9.10;99.90
47336;DHT22;33068;51.990;5.926;2022-12-26T00:50:18;9.10;99.90
47336;DHT22;33068;51.990;5.926;2022-12-26T00:52:45;9.20;99.90
47336;DHT22;33068;51.990;5.926;2022-12-26T00:55:14;9.20;99.90
47336;DHT22;33068;51.990;5.926;2022-12-26T00:57:46;9.20;99.90
47336;DHT22;33068;51.990;5.926;2022-12-26T01:00:13;9.20;99.90
47336;DHT22;33068;51.990;5.926;2022-12-26T01:02:41;9.20;99.90
47336;DHT22;33068;51.990;5.926;2022-12-26T01:05:14;9.20;99.90
47336;DHT22;33068;51.990;5.926;2022-12-26T01:07:41;9.20;99.90
47336;DHT22;33068;51.990;5.926;2022-12-26T01:10:16;9.30;99.90
47336;DHT22;33068;51.990;5.926;2022-12-26T01:12:46;9.20;99.90
47336;DHT22;33068;51.990;5.926;2022-12-26T01:15:13;9.20;99.90
47336;DHT22;33068;51.990;5.926;2022-12-26T01:17:41;9.30;99.90
47336;DHT22;33068;51.990;5.926;2022-12-26T01:20:12;9.20;99.90
47336;DHT22;33068;51.990;5.926;2022-12-26T01:22:39;9.30;99.90
47336;DHT22;33068;51.990;5.926;2022-12-26T01:25:06;9.30;99.90
47336;DHT22;33068;51.990;5.926;2022-12-26T01:27:33;9.20;99.90
47336;DHT22;33068;51.990;5.926;2022-12-26T01:30:00;9.30;99.90
47336;DHT22;33068;51.990;5.926;2022-12-26T01:32:29;9.30;99.90
47336;DHT22;33068;51.990;5.926;2022-12-26T01:34:58;9.30;99.90
47336;DHT22;33068;51.990;5.926;2022-12-26T01:37:25;9.20;99.90
47336;DHT22;33068;51.990;5.926;2022-12-26T01:39:52;9.30;99.90
47336;DHT22;33068;51.990;5.926;2022-12-26T01:42:23;9.30;99.90
47336;DHT22;33068;51.990;5.926;2022-12-26T01:44:54;9.30;99.90
47336;DHT22;33068;51.990;5.926;2022-12-26T01:47:23;9.30;99.90
47336;DHT22;33068;51.990;5.926;2022-12-26T01:49:51;9.30;99.90
47336;DHT22;33068;51.990;5.926;2022-12-26T01:52:22;9.30;99.90
47336;DHT22;33068;51.990;5.926;2022-12-26T01:54:49;9.30;99.90
47336;DHT22;33068;51.990;5.926;2022-12-26T01:57:21;9.20;99.90
47336;DHT22;33068;51.990;5.926;2022-12-26T01:59:48;9.00;99.90
47336;DHT22;33068;51.990;5.926;2022-12-26T02:04:52;9.20;99.90
47336;DHT22;33068;51.990;5.926;2022-12-26T02:07:39;9.20;99.90
47336;DHT22;33068;51.990;5.926;2022-12-26T02:10:08;9.20;99.90
47336;DHT22;33068;51.990;5.926;2022-12-26T02:12:36;9.20;99.90
47336;DHT22;33068;51.990;5.926;2022-12-26T02:15:04;9.20;99.90
47336;DHT22;33068;51.990;5.926;2022-12-26T02:17:32;8.90;99.90
47336;DHT22;33068;51.990;5.926;2022-12-26T02:20:00;9.20;99.90
47336;DHT22;33068;51.990;5.926;2022-12-26T02:22:35;9.40;99.90
47336;DHT22;33068;51.990;5.926;2022-12-26T02:25:24;9.20;99.90
47336;DHT22;33068;51.990;5.926;2022-12-26T02:28:05;9.20;99.90
47336;DHT22;33068;51.990;5.926;2022-12-26T02:30:44;9.20;99.90
47336;DHT22;33068;51.990;5.926;2022-12-26T02:33:33;9.20;99.90
47336;DHT22;33068;51.990;5.926;2022-12-26T02:39:05;9.20;99.90
47336;DHT22;33068;51.990;5.926;2022-12-26T02:41:35;9.20;99.90
47336;DHT22;33068;51.990;5.926;2022-12-26T02:44:12;9.20;99.90
47336;DHT22;33068;51.990;5.926;2022-12-26T02:47:04;9.20;99.90
47336;DHT22;33068;51.990;5.926;2022-12-26T02:52:35;9.20;99.90
47336;DHT22;33068;51.990;5.926;2022-12-26T02:55:25;9.20;99.90
47336;DHT22;33068;51.990;5.926;2022-12-26T02:58:12;9.20;99.90
47336;DHT22;33068;51.990;5.926;2022-12-26T03:00:59;9.20;99.90
47336;DHT22;33068;51.990;5.926;2022-12-26T03:03:48;9.20;99.90
47336;DHT22;33068;51.990;5.926;2022-12-26T03:06:33;9.20;99.90
47336;DHT22;33068;51.990;5.926;2022-12-26T03:09:20;9.20;99.90
47336;DHT22;33068;51.990;5.926;2022-12-26T03:12:07;9.20;99.90
47336;DHT22;33068;51.990;5.926;2022-12-26T03:14:52;9.20;99.90
47336;DHT22;33068;51.990;5.926;2022-12-26T03:17:25;9.10;99.90
47336;DHT22;33068;51.990;5.926;2022-12-26T03:19:57;9.10;99.90
47336;DHT22;33068;51.990;5.926;2022-12-26T03:22:28;9.10;99.90
47336;DHT22;33068;51.990;5.926;2022-12-26T03:25:05;9.10;99.90
47336;DHT22;33068;51.990;5.926;2022-12-26T03:27:50;9.10;99.90
47336;DHT22;33068;51.990;5.926;2022-12-26T03:30:18;9.10;99.90
47336;DHT22;33068;51.990;5.926;2022-12-26T03:33:02;9.00;99.90
47336;DHT22;33068;51.990;5.926;2022-12-26T03:35:32;9.00;99.90
47336;DHT22;33068;51.990;5.926;2022-12-26T03:37:58;9.00;99.90
47336;DHT22;33068;51.990;5.926;2022-12-26T03:40:43;9.00;99.90
47336;DHT22;33068;51.990;5.926;2022-12-26T03:43:38;9.00;99.90
47336;DHT22;33068;51.990;5.926;2022-12-26T03:46:27;9.00;99.90
47336;DHT22;33068;51.990;5.926;2022-12-26T03:49:15;9.00;99.90
47336;DHT22;33068;51.990;5.926;2022-12-26T03:52:04;9.00;99.90
47336;DHT22;33068;51.990;5.926;2022-12-26T03:54:52;9.00;99.90
47336;DHT22;33068;51.990;5.926;2022-12-26T03:57:46;9.00;99.90
47336;DHT22;33068;51.990;5.926;2022-12-26T04:00:32;9.00;99.90
47336;DHT22;33068;51.990;5.926;2022-12-26T04:03:18;9.20;99.90
47336;DHT22;33068;51.990;5.926;2022-12-26T04:06:05;9.00;99.90
47336;DHT22;33068;51.990;5.926;2022-12-26T04:08:58;9.00;99.90
47336;DHT22;33068;51.990;5.926;2022-12-26T04:11:43;9.00;99.90
47336;DHT22;33068;51.990;5.926;2022-12-26T04:14:32;9.00;99.90
47336;DHT22;33068;51.990;5.926;2022-12-26T04:17:21;9.00;99.90
47336;DHT22;33068;51.990;5.926;2022-12-26T04:20:09;9.10;99.90
47336;DHT22;33068;51.990;5.926;2022-12-26T04:22:45;9.10;99.90
47336;DHT22;33068;51.990;5.926;2022-12-26T04:25:32;9.10;99.90
47336;DHT22;33068;51.990;5.926;2022-12-26T04:28:19;9.10;99.90
47336;DHT22;33068;51.990;5.926;2022-12-26T04:31:05;9.00;99.90
47336;DHT22;33068;51.990;5.926;2022-12-26T04:33:52;9.10;99.90
47336;DHT22;33068;51.990;5.926;2022-12-26T04:36:40;9.10;99.90
47336;DHT22;33068;51.990;5.926;2022-12-26T04:39:28;9.00;99.90
47336;DHT22;33068;51.990;5.926;2022-12-26T04:42:14;9.00;99.90
47336;DHT22;33068;51.990;5.926;2022-12-26T04:44:59;9.10;99.90
47336;DHT22;33068;51.990;5.926;2022-12-26T04:47:28;9.10;99.90
47336;DHT22;33068;51.990;5.926;2022-12-26T04:49:58;9.10;99.90
47336;DHT22;33068;51.990;5.926;2022-12-26T04:52:38;9.10;99.90
47336;DHT22;33068;51.990;5.926;2022-12-26T04:55:26;9.10;99.90
47336;DHT22;33068;51.990;5.926;2022-12-26T04:57:54;9.10;99.90
47336;DHT22;33068;51.990;5.926;2022-12-26T05:00:21;9.10;99.90
47336;DHT22;33068;51.990;5.926;2022-12-26T05:02:49;9.10;99.90
47336;DHT22;33068;51.990;5.926;2022-12-26T05:05:36;9.10;99.90
47336;DHT22;33068;51.990;5.926;2022-12-26T05:08:34;9.20;99.90
47336;DHT22;33068;51.990;5.926;2022-12-26T05:11:22;9.00;99.90
47336;DHT22;33068;51.990;5.926;2022-12-26T05:13:51;8.90;99.90
47336;DHT22;33068;51.990;5.926;2022-12-26T05:16:18;8.80;99.90
47336;DHT22;33068;51.990;5.926;2022-12-26T05:19:03;9.10;99.90
47336;DHT22;33068;51.990;5.926;2022-12-26T05:21:47;8.90;99.90
47336;DHT22;33068;51.990;5.926;2022-12-26T05:24:35;8.90;99.90
47336;DHT22;33068;51.990;5.926;2022-12-26T05:27:21;8.90;99.90
47336;DHT22;33068;51.990;5.926;2022-12-26T05:30:07;8.90;99.90
47336;DHT22;33068;51.990;5.926;2022-12-26T05:32:34;8.90;99.90
47336;DHT22;33068;51.990;5.926;2022-12-26T05:35:18;8.80;99.90
47336;DHT22;33068;51.990;5.926;2022-12-26T05:37:46;8.90;99.90
47336;DHT22;33068;51.990;5.926;2022-12-26T05:40:13;9.10;99.90
47336;DHT22;33068;51.990;5.926;2022-12-26T05:42:40;8.80;99.90
47336;DHT22;33068;51.990;5.926;2022-12-26T05:45:11;8.70;99.90
47336;DHT22;33068;51.990;5.926;2022-12-26T05:47:40;8.70;99.90
47336;DHT22;33068;51.990;5.926;2022-12-26T05:50:07;8.70;99.90
47336;DHT22;33068;51.990;5.926;2022-12-26T05:52:34;8.70;99.90
47336;DHT22;33068;51.990;5.926;2022-12-26T05:55:01;8.70;99.90
47336;DHT22;33068;51.990;5.926;2022-12-26T05:57:28;8.70;99.90
47336;DHT22;33068;51.990;5.926;2022-12-26T05:59:55;8.70;99.90
47336;DHT22;33068;51.990;5.926;2022-12-26T06:02:23;8.60;99.90
47336;DHT22;33068;51.990;5.926;2022-12-26T06:04:50;8.60;99.90
47336;DHT22;33068;51.990;5.926;2022-12-26T06:07:17;8.60;99.90
47336;DHT22;33068;51.990;5.926;2022-12-26T06:09:44;8.80;99.90
47336;DHT22;33068;51.990;5.926;2022-12-26T06:12:11;8.60;99.90
47336;DHT22;33068;51.990;5.926;2022-12-26T06:14:39;8.50;99.90
47336;DHT22;33068;51.990;5.926;2022-12-26T06:17:09;8.50;99.90
47336;DHT22;33068;51.990;5.926;2022-12-26T06:19:37;8.50;99.90
47336;DHT22;33068;51.990;5.926;2022-12-26T06:22:04;8.50;99.90
47336;DHT22;33068;51.990;5.926;2022-12-26T06:24:45;8.40;99.90
47336;DHT22;33068;51.990;5.926;2022-12-26T06:27:11;8.40;99.90
47336;DHT22;33068;51.990;5.926;2022-12-26T06:29:41;8.40;99.90
47336;DHT22;33068;51.990;5.926;2022-12-26T06:32:08;8.30;99.90
47336;DHT22;33068;51.990;5.926;2022-12-26T06:34:34;8.40;99.90
47336;DHT22;33068;51.990;5.926;2022-12-26T06:37:03;8.40;99.90
47336;DHT22;33068;51.990;5.926;2022-12-26T06:39:30;8.40;99.90
47336;DHT22;33068;51.990;5.926;2022-12-26T06:41:57;8.40;99.90
47336;DHT22;33068;51.990;5.926;2022-12-26T06:44:24;8.40;99.90
47336;DHT22;33068;51.990;5.926;2022-12-26T06:46:54;8.40;99.90
47336;DHT22;33068;51.990;5.926;2022-12-26T06:49:23;8.50;99.90
47336;DHT22;33068;51.990;5.926;2022-12-26T06:51:50;8.40;99.90
47336;DHT22;33068;51.990;5.926;2022-12-26T06:54:19;8.40;99.90
47336;DHT22;33068;51.990;5.926;2022-12-26T06:56:48;8.40;99.90
47336;DHT22;33068;51.990;5.926;2022-12-26T06:59:15;8.50;99.90
47336;DHT22;33068;51.990;5.926;2022-12-26T07:01:44;8.50;99.90
47336;DHT22;33068;51.990;5.926;2022-12-26T07:04:11;8.50;99.90
47336;DHT22;33068;51.990;5.926;2022-12-26T07:06:38;8.50;99.90
47336;DHT22;33068;51.990;5.926;2022-12-26T07:09:06;8.50;99.90
47336;DHT22;33068;51.990;5.926;2022-12-26T07:11:35;8.60;99.90
47336;DHT22;33068;51.990;5.926;2022-12-26T07:14:02;8.60;99.90
47336;DHT22;33068;51.990;5.926;2022-12-26T07:16:30;8.60;99.90
47336;DHT22;33068;51.990;5.926;2022-12-26T07:18:58;8.60;99.90
47336;DHT22;33068;51.990;5.926;2022-12-26T07:21:26;8.50;99.90
47336;DHT22;33068;51.990;5.926;2022-12-26T07:23:56;8.50;99.90
47336;DHT22;33068;51.990;5.926;2022-12-26T07:26:23;8.10;99.90
47336;DHT22;33068;51.990;5.926;2022-12-26T07:28:55;8.20;99.90
47336;DHT22;33068;51.990;5.926;2022-12-26T07:31:22;8.30;99.90
47336;DHT22;33068;51.990;5.926;2022-12-26T07:33:49;8.70;99.90
47336;DHT22;33068;51.990;5.926;2022-12-26T07:36:17;8.50;99.90
47336;DHT22;33068;51.990;5.926;2022-12-26T07:38:44;8.50;99.90
47336;DHT22;33068;51.990;5.926;2022-12-26T07:41:13;8.40;99.90
47336;DHT22;33068;51.990;5.926;2022-12-26T07:44:00;8.40;99.90
47336;DHT22;33068;51.990;5.926;2022-12-26T07:46:28;8.30;99.90
47336;DHT22;33068;51.990;5.926;2022-12-26T07:48:55;8.30;99.90
47336;DHT22;33068;51.990;5.926;2022-12-26T07:51:24;8.30;99.90
47336;DHT22;33068;51.990;5.926;2022-12-26T07:53:51;8.30;99.90
47336;DHT22;33068;51.990;5.926;2022-12-26T07:56:18;8.40;99.90
47336;DHT22;33068;51.990;5.926;2022-12-26T07:58:46;8.40;99.90
47336;DHT22;33068;51.990;5.926;2022-12-26T08:01:15;8.30;99.90
47336;DHT22;33068;51.990;5.926;2022-12-26T08:03:42;8.30;99.90
47336;DHT22;33068;51.990;5.926;2022-12-26T08:06:09;8.30;99.90
47336;DHT22;33068;51.990;5.926;2022-12-26T08:08:39;8.30;99.90
47336;DHT22;33068;51.990;5.926;2022-12-26T08:11:07;8.40;99.90
47336;DHT22;33068;51.990;5.926;2022-12-26T08:13:34;8.50;99.90
47336;DHT22;33068;51.990;5.926;2022-12-26T08:16:03;8.50;99.90
47336;DHT22;33068;51.990;5.926;2022-12-26T08:18:32;8.60;99.90
47336;DHT22;33068;51.990;5.926;2022-12-26T08:21:02;8.60;99.90
47336;DHT22;33068;51.990;5.926;2022-12-26T08:23:29;8.60;99.90
47336;DHT22;33068;51.990;5.926;2022-12-26T08:25:56;8.60;99.90
47336;DHT22;33068;51.990;5.926;2022-12-26T08:28:23;8.70;99.90
47336;DHT22;33068;51.990;5.926;2022-12-26T08:30:50;8.80;99.90
47336;DHT22;33068;51.990;5.926;2022-12-26T08:33:17;8.90;99.90
47336;DHT22;33068;51.990;5.926;2022-12-26T08:35:45;8.90;99.90
47336;DHT22;33068;51.990;5.926;2022-12-26T08:38:12;8.90;99.90
47336;DHT22;33068;51.990;5.926;2022-12-26T08:40:39;9.00;99.90
47336;DHT22;33068;51.990;5.926;2022-12-26T08:43:06;9.00;99.90
47336;DHT22;33068;51.990;5.926;2022-12-26T08:45:33;9.10;99.90
47336;DHT22;33068;51.990;5.926;2022-12-26T08:48:00;9.10;99.90
47336;DHT22;33068;51.990;5.926;2022-12-26T08:50:29;9.10;99.90
47336;DHT22;33068;51.990;5.926;2022-12-26T08:52:58;9.00;99.90
47336;DHT22;33068;51.990;5.926;2022-12-26T08:55:26;9.10;99.90
47336;DHT22;33068;51.990;5.926;2022-12-26T08:57:53;9.10;99.90
47336;DHT22;33068;51.990;5.926;2022-12-26T09:00:20;9.10;99.90
47336;DHT22;33068;51.990;5.926;2022-12-26T09:02:50;9.20;99.90
47336;DHT22;33068;51.990;5.926;2022-12-26T09:05:17;9.30;99.90
47336;DHT22;33068;51.990;5.926;2022-12-26T09:07:44;9.40;99.90
47336;DHT22;33068;51.990;5.926;2022-12-26T09:10:13;9.40;99.90
47336;DHT22;33068;51.990;5.926;2022-12-26T09:12:40;9.40;99.90
47336;DHT22;33068;51.990;5.926;2022-12-26T09:15:07;9.40;99.90
47336;DHT22;33068;51.990;5.926;2022-12-26T09:17:34;9.40;99.90
47336;DHT22;33068;51.990;5.926;2022-12-26T09:20:01;9.50;99.90
47336;DHT22;33068;51.990;5.926;2022-12-26T09:22:28;9.60;99.90
47336;DHT22;33068;51.990;5.926;2022-12-26T09:25:14;9.60;99.90
47336;DHT22;33068;51.990;5.926;2022-12-26T09:27:41;9.60;99.90
47336;DHT22;33068;51.990;5.926;2022-12-26T09:30:09;9.60;99.90
47336;DHT22;33068;51.990;5.926;2022-12-26T09:32:36;9.60;99.90
47336;DHT22;33068;51.990;5.926;2022-12-26T09:35:04;9.60;99.90
47336;DHT22;33068;51.990;5.926;2022-12-26T09:37:31;9.70;99.90
47336;DHT22;33068;51.990;5.926;2022-12-26T09:40:00;9.80;99.90
47336;DHT22;33068;51.990;5.926;2022-12-26T09:42:35;9.90;99.90
47336;DHT22;33068;51.990;5.926;2022-12-26T09:45:08;9.80;99.90
47336;DHT22;33068;51.990;5.926;2022-12-26T09:47:38;9.80;99.90
47336;DHT22;33068;51.990;5.926;2022-12-26T09:50:09;9.80;99.90
47336;DHT22;33068;51.990;5.926;2022-12-26T09:52:39;9.80;99.90
47336;DHT22;33068;51.990;5.926;2022-12-26T09:55:15;9.70;99.90
47336;DHT22;33068;51.990;5.926;2022-12-26T09:57:45;9.60;99.90
47336;DHT22;33068;51.990;5.926;2022-12-26T10:00:15;9.60;99.90
47336;DHT22;33068;51.990;5.926;2022-12-26T10:02:45;9.60;99.90
47336;DHT22;33068;51.990;5.926;2022-12-26T10:05:16;9.60;99.90
47336;DHT22;33068;51.990;5.926;2022-12-26T10:07:45;9.50;99.90
47336;DHT22;33068;51.990;5.926;2022-12-26T10:10:13;9.60;99.90
47336;DHT22;33068;51.990;5.926;2022-12-26T10:12:51;9.50;99.90
47336;DHT22;33068;51.990;5.926;2022-12-26T10:15:28;9.50;99.90
47336;DHT22;33068;51.990;5.926;2022-12-26T10:18:02;9.40;99.90
47336;DHT22;33068;51.990;5.926;2022-12-26T10:21:00;9.30;99.90
47336;DHT22;33068;51.990;5.926;2022-12-26T10:23:31;9.20;99.90
47336;DHT22;33068;51.990;5.926;2022-12-26T10:26:02;9.20;99.90
47336;DHT22;33068;51.990;5.926;2022-12-26T10:28:33;9.20;99.90
47336;DHT22;33068;51.990;5.926;2022-12-26T10:31:01;9.00;99.90
47336;DHT22;33068;51.990;5.926;2022-12-26T10:33:36;9.20;99.90
47336;DHT22;33068;51.990;5.926;2022-12-26T10:36:12;9.20;99.90
47336;DHT22;33068;51.990;5.926;2022-12-26T10:38:42;9.30;99.90
47336;DHT22;33068;51.990;5.926;2022-12-26T10:41:12;9.20;99.90
47336;DHT22;33068;51.990;5.926;2022-12-26T10:43:41;9.20;99.90
47336;DHT22;33068;51.990;5.926;2022-12-26T10:48:55;9.20;99.90
47336;DHT22;33068;51.990;5.926;2022-12-26T10:51:27;9.20;99.90
47336;DHT22;33068;51.990;5.926;2022-12-26T10:53:57;9.20;99.90
47336;DHT22;33068;51.990;5.926;2022-12-26T10:56:24;9.20;99.90
47336;DHT22;33068;51.990;5.926;2022-12-26T10:58:58;9.10;99.90
47336;DHT22;33068;51.990;5.926;2022-12-26T11:01:30;9.10;99.90
47336;DHT22;33068;51.990;5.926;2022-12-26T11:03:58;8.60;99.90
47336;DHT22;33068;51.990;5.926;2022-12-26T11:06:27;8.70;99.90
47336;DHT22;33068;51.990;5.926;2022-12-26T11:08:55;8.60;99.90
47336;DHT22;33068;51.990;5.926;2022-12-26T11:11:22;8.40;99.90
47336;DHT22;33068;51.990;5.926;2022-12-26T11:13:51;8.40;99.90
47336;DHT22;33068;51.990;5.926;2022-12-26T11:16:24;8.40;99.90
47336;DHT22;33068;51.990;5.926;2022-12-26T11:18:51;8.40;99.90
47336;DHT22;33068;51.990;5.926;2022-12-26T11:21:19;8.40;99.90
47336;DHT22;33068;51.990;5.926;2022-12-26T11:23:48;8.50;99.90
47336;DHT22;33068;51.990;5.926;2022-12-26T11:26:18;8.30;99.90
47336;DHT22;33068;51.990;5.926;2022-12-26T11:28:46;8.30;99.90
47336;DHT22;33068;51.990;5.926;2022-12-26T11:31:18;8.30;99.90
47336;DHT22;33068;51.990;5.926;2022-12-26T11:33:47;8.20;99.90
47336;DHT22;33068;51.990;5.926;2022-12-26T11:36:16;8.10;99.90
47336;DHT22;33068;51.990;5.926;2022-12-26T11:38:48;8.10;99.90
47336;DHT22;33068;51.990;5.926;2022-12-26T11:41:18;8.20;99.90
47336;DHT22;33068;51.990;5.926;2022-12-26T11:43:58;8.30;99.90
47336;DHT22;33068;51.990;5.926;2022-12-26T11:46:32;8.40;99.90
47336;DHT22;33068;51.990;5.926;2022-12-26T11:49:06;8.40;99.90
47336;DHT22;33068;51.990;5.926;2022-12-26T11:51:41;8.30;99.90
47336;DHT22;33068;51.990;5.926;2022-12-26T11:54:14;8.30;99.90
47336;DHT22;33068;51.990;5.926;2022-12-26T11:56:43;8.20;99.90
47336;DHT22;33068;51.990;5.926;2022-12-26T11:59:13;8.10;99.90
47336;DHT22;33068;51.990;5.926;2022-12-26T12:01:41;8.00;99.90
47336;DHT22;33068;51.990;5.926;2022-12-26T12:04:10;7.80;99.90
47336;DHT22;33068;51.990;5.926;2022-12-26T12:06:43;7.90;99.90
47336;DHT22;33068;51.990;5.926;2022-12-26T12:09:15;7.60;99.90
47336;DHT22;33068;51.990;5.926;2022-12-26T12:11:45;7.80;99.90
47336;DHT22;33068;51.990;5.926;2022-12-26T12:14:27;7.80;99.90
47336;DHT22;33068;51.990;5.926;2022-12-26T12:17:00;7.80;99.90
47336;DHT22;33068;51.990;5.926;2022-12-26T12:19:36;7.70;99.90
47336;DHT22;33068;51.990;5.926;2022-12-26T12:22:08;7.70;99.90
47336;DHT22;33068;51.990;5.926;2022-12-26T12:24:38;7.70;99.90
47336;DHT22;33068;51.990;5.926;2022-12-26T12:27:08;7.70;99.90
47336;DHT22;33068;51.990;5.926;2022-12-26T12:29:46;7.60;99.90
47336;DHT22;33068;51.990;5.926;2022-12-26T12:32:23;7.70;99.90
47336;DHT22;33068;51.990;5.926;2022-12-26T12:34:59;7.80;99.90
47336;DHT22;33068;51.990;5.926;2022-12-26T12:37:31;7.80;99.90
47336;DHT22;33068;51.990;5.926;2022-12-26T12:40:03;7.80;99.90
47336;DHT22;33068;51.990;5.926;2022-12-26T12:42:35;7.80;99.90
47336;DHT22;33068;51.990;5.926;2022-12-26T12:45:19;8.10;99.90
47336;DHT22;33068;51.990;5.926;2022-12-26T12:47:53;7.70;99.90
47336;DHT22;33068;51.990;5.926;2022-12-26T12:50:24;7.70;99.90
47336;DHT22;33068;51.990;5.926;2022-12-26T12:52:56;7.70;99.90
47336;DHT22;33068;51.990;5.926;2022-12-26T12:55:36;7.70;99.90
47336;DHT22;33068;51.990;5.926;2022-12-26T12:58:06;7.70;99.90
47336;DHT22;33068;51.990;5.926;2022-12-26T13:00:39;7.70;99.90
47336;DHT22;33068;51.990;5.926;2022-12-26T13:03:08;7.50;99.90
47336;DHT22;33068;51.990;5.926;2022-12-26T13:05:41;7.60;99.90
47336;DHT22;33068;51.990;5.926;2022-12-26T13:08:10;7.60;99.90
47336;DHT22;33068;51.990;5.926;2022-12-26T13:10:43;7.60;99.90
47336;DHT22;33068;51.990;5.926;2022-12-26T13:13:12;7.50;99.90
47336;DHT22;33068;51.990;5.926;2022-12-26T13:15:43;7.50;99.90
47336;DHT22;33068;51.990;5.926;2022-12-26T13:18:14;7.50;99.90
47336;DHT22;33068;51.990;5.926;2022-12-26T13:20:49;7.70;99.90
47336;DHT22;33068;51.990;5.926;2022-12-26T13:23:20;7.50;99.90
47336;DHT22;33068;51.990;5.926;2022-12-26T13:26:08;7.40;99.90
47336;DHT22;33068;51.990;5.926;2022-12-26T13:28:38;7.40;99.90
47336;DHT22;33068;51.990;5.926;2022-12-26T13:31:10;7.30;99.90
47336;DHT22;33068;51.990;5.926;2022-12-26T13:33:36;7.20;99.90
47336;DHT22;33068;51.990;5.926;2022-12-26T13:36:08;7.20;99.90
47336;DHT22;33068;51.990;5.926;2022-12-26T13:41:19;7.20;99.90
47336;DHT22;33068;51.990;5.926;2022-12-26T13:44:05;7.20;99.90
47336;DHT22;33068;51.990;5.926;2022-12-26T13:46:36;7.20;99.90
47336;DHT22;33068;51.990;5.926;2022-12-26T13:49:03;7.10;99.90
47336;DHT22;33068;51.990;5.926;2022-12-26T13:51:48;7.10;99.90
47336;DHT22;33068;51.990;5.926;2022-12-26T13:54:16;7.10;99.90
47336;DHT22;33068;51.990;5.926;2022-12-26T13:59:41;6.90;99.90
47336;DHT22;33068;51.990;5.926;2022-12-26T14:02:15;6.90;99.90
47336;DHT22;33068;51.990;5.926;2022-12-26T14:04:46;6.80;99.90
47336;DHT22;33068;51.990;5.926;2022-12-26T14:07:21;7.00;99.90
47336;DHT22;33068;51.990;5.926;2022-12-26T14:09:59;6.80;99.90
47336;DHT22;33068;51.990;5.926;2022-12-26T14:12:31;6.60;99.90
47336;DHT22;33068;51.990;5.926;2022-12-26T14:15:18;6.80;99.90
47336;DHT22;33068;51.990;5.926;2022-12-26T14:17:50;6.80;99.90
47336;DHT22;33068;51.990;5.926;2022-12-26T14:20:24;6.80;99.90
47336;DHT22;33068;51.990;5.926;2022-12-26T14:23:00;6.70;99.90
47336;DHT22;33068;51.990;5.926;2022-12-26T14:25:30;6.70;99.90
47336;DHT22;33068;51.990;5.926;2022-12-26T14:28:02;6.60;99.90
47336;DHT22;33068;51.990;5.926;2022-12-26T14:30:33;6.60;99.90
47336;DHT22;33068;51.990;5.926;2022-12-26T14:35:53;6.50;99.90
47336;DHT22;33068;51.990;5.926;2022-12-26T14:38:31;6.40;99.90
47336;DHT22;33068;51.990;5.926;2022-12-26T14:41:00;6.40;99.90
47336;DHT22;33068;51.990;5.926;2022-12-26T14:43:30;6.40;99.90
47336;DHT22;33068;51.990;5.926;2022-12-26T14:46:04;6.30;99.90
47336;DHT22;33068;51.990;5.926;2022-12-26T14:48:48;6.20;99.90
47336;DHT22;33068;51.990;5.926;2022-12-26T14:51:26;6.20;99.90
47336;DHT22;33068;51.990;5.926;2022-12-26T14:56:40;6.10;99.90
47336;DHT22;33068;51.990;5.926;2022-12-26T14:59:25;6.10;99.90
47336;DHT22;33068;51.990;5.926;2022-12-26T15:09:23;6.10;99.90
47336;DHT22;33068;51.990;5.926;2022-12-26T15:15:06;5.90;99.90
47336;DHT22;33068;51.990;5.926;2022-12-26T15:17:42;5.60;99.90
47336;DHT22;33068;51.990;5.926;2022-12-26T15:26:30;5.90;99.90
47336;DHT22;33068;51.990;5.926;2022-12-26T15:32:16;5.80;99.90
47336;DHT22;33068;51.990;5.926;2022-12-26T15:34:57;5.70;99.90
47336;DHT22;33068;51.990;5.926;2022-12-26T15:41:03;5.70;99.90
47336;DHT22;33068;51.990;5.926;2022-12-26T15:44:22;5.50;99.90
47336;DHT22;33068;51.990;5.926;2022-12-26T15:50:09;5.40;99.90
47336;DHT22;33068;51.990;5.926;2022-12-26T15:52:45;5.40;99.90
47336;DHT22;33068;51.990;5.926;2022-12-26T15:59:03;5.20;99.90
47336;DHT22;33068;51.990;5.926;2022-12-26T16:02:28;5.20;99.90
47336;DHT22;33068;51.990;5.926;2022-12-26T16:11:18;5.00;99.90
47336;DHT22;33068;51.990;5.926;2022-12-26T16:13:49;5.10;99.90
47336;DHT22;33068;51.990;5.926;2022-12-26T16:19:54;4.90;99.90
47336;DHT22;33068;51.990;5.926;2022-12-26T16:22:28;4.80;99.90
47336;DHT22;33068;51.990;5.926;2022-12-26T16:25:12;4.70;99.90
47336;DHT22;33068;51.990;5.926;2022-12-26T16:27:48;4.70;99.90
47336;DHT22;33068;51.990;5.926;2022-12-26T16:30:19;4.70;99.90
47336;DHT22;33068;51.990;5.926;2022-12-26T16:32:49;4.60;99.90
47336;DHT22;33068;51.990;5.926;2022-12-26T16:35:19;4.60;99.90
47336;DHT22;33068;51.990;5.926;2022-12-26T16:37:49;4.60;99.90
47336;DHT22;33068;51.990;5.926;2022-12-26T16:40:21;4.50;99.90
47336;DHT22;33068;51.990;5.926;2022-12-26T16:43:03;4.40;99.90
47336;DHT22;33068;51.990;5.926;2022-12-26T16:45:33;4.50;99.90
47336;DHT22;33068;51.990;5.926;2022-12-26T16:48:03;4.40;99.90
47336;DHT22;33068;51.990;5.926;2022-12-26T16:50:32;4.40;99.90
47336;DHT22;33068;51.990;5.926;2022-12-26T16:53:50;4.30;99.90
47336;DHT22;33068;51.990;5.926;2022-12-26T16:56:21;4.30;99.90
47336;DHT22;33068;51.990;5.926;2022-12-26T17:02:41;4.20;99.90
47336;DHT22;33068;51.990;5.926;2022-12-26T17:05:17;4.40;99.90
47336;DHT22;33068;51.990;5.926;2022-12-26T17:07:47;4.10;99.90
47336;DHT22;33068;51.990;5.926;2022-12-26T17:10:22;4.00;99.90
47336;DHT22;33068;51.990;5.926;2022-12-26T17:12:50;3.70;99.90
47336;DHT22;33068;51.990;5.926;2022-12-26T17:15:19;3.90;99.90
47336;DHT22;33068;51.990;5.926;2022-12-26T17:17:51;3.90;99.90
47336;DHT22;33068;51.990;5.926;2022-12-26T17:23:31;4.00;99.90
47336;DHT22;33068;51.990;5.926;2022-12-26T17:28:59;3.70;99.90
47336;DHT22;33068;51.990;5.926;2022-12-26T17:35:05;3.60;99.90
47336;DHT22;33068;51.990;5.926;2022-12-26T17:37:53;3.60;99.90
47336;DHT22;33068;51.990;5.926;2022-12-26T17:40:29;3.60;99.90
47336;DHT22;33068;51.990;5.926;2022-12-26T17:43:04;3.40;99.90
47336;DHT22;33068;51.990;5.926;2022-12-26T17:45:35;3.60;99.90